NK80 weather

Rainbow Air Heliport
Niagara Falls, New York, United States

Public forecast

Using degrees Fahrenheit for public forecast. Weather courtesy of forecast.io.

Closest aviation weather report (METAR) to Rainbow Air Heliport

Closest report is Niagara Falls International Airport, 5.2 nm (9.6 km) ENE. Retrieved 2019/10/18 20:53 UTC (2 hours ago):

KIAG 182053Z 29006KT 10SM CLR 10/02 A3002 RMK AO2 SLP172 T01000017 51001

Closest aviation forecast (TAF) to Rainbow Air Heliport

Closest forecast is Niagara Falls International Airport, 5.2 nm (9.6 km) ENE. Retrieved 2019/10/18 18:22 UTC (4 hours ago):

TAF KIAG 181720Z 1818/1918 31011KT P6SM BKN035 FM182000 31008KT P6SM SCT035 FM190500 00000KT P6SM SKC